Darstellungsparameter: Aktuell verwendete Einstellungen:
Skalierung der Graphiken ... ?
xyx+y,   Skalierungsfaktor:      Skalierung: Modus: x, Faktor: 1
Darstellungszeitraum ... ?
Vom - - bis: - -   Zeitraum: 04.09.2020 - 05.09.2020
Min/Max/Avg-Anzeige ... ?
Zeige MMA aktuell
Zeige MMA Monat
Zeige MMA alles
Zeige --A aktuell
Zeige --A Monat
Zeige --A alles
Keine MMA-Anzeige
MMA:
Keine MMA-Graphiken
MMA-Basis: 04.09.2020 - 05.09.2020
Quicknavigation für Darstellung... ?
Tage:      1T, 2T, 3T, 5T -1T -2T -3T -5T +1T +2T +3T +5T
Wochen: 1W, 2W, 3W -1W -2W -3W +1W +2W +3W
Monate: 1M, 3M, 6M -1M -3M -6M +1M +3M +6M
Jahre:    1J, 3J, 5J, 10J -1J -3J -5J -10J +1J +3J +5J +10J
Nutze für die Darstellung ... ?
Originaldaten oder Mittelwerte auf ...
Stundenbasis Tagesbasis Wochenbasis
Monatsbasis Jahresbasis      Datenbasis: Original-Daten
Darstellen als:
Statistik (Auto) Statistik J:M      Darstellung:
Zur Graphik,    zurück zur Übersicht aller Sensoren.
 
Tabellarische Datenbersicht: ?
 
Sensor: Nr:Datum:Temp:Feuchte:Taupunkt:
Aussen-T/F 1 04-09-2020 00:00:00 15.8 C 94 % 14.84 C
2 04-09-2020 00:05:00 15.8 C 94 % 14.84 C
3 04-09-2020 00:10:00 15.8 C 94 % 14.84 C
4 04-09-2020 00:15:00 15.8 C 94 % 14.84 C
5 04-09-2020 00:20:00 15.8 C 94 % 14.84 C
6 04-09-2020 00:25:00 15.8 C 94 % 14.84 C
7 04-09-2020 00:30:00 15.8 C 94 % 14.84 C
8 04-09-2020 00:35:00 15.8 C 94 % 14.84 C
9 04-09-2020 00:40:00 15.8 C 94 % 14.84 C
10 04-09-2020 00:45:00 15.9 C 94 % 14.94 C
11 04-09-2020 00:50:00 15.9 C 94 % 14.94 C
12 04-09-2020 00:55:00 15.9 C 94 % 14.94 C
13 04-09-2020 01:00:00 15.9 C 94 % 14.94 C
14 04-09-2020 01:05:00 15.8 C 94 % 14.84 C
15 04-09-2020 01:10:00 15.8 C 94 % 14.84 C
16 04-09-2020 01:15:00 15.8 C 94 % 14.84 C
17 04-09-2020 01:20:00 15.8 C 94 % 14.84 C
18 04-09-2020 01:25:00 15.7 C 94 % 14.74 C
19 04-09-2020 01:30:00 15.7 C 94 % 14.74 C
20 04-09-2020 01:35:00 15.7 C 94 % 14.74 C
21 04-09-2020 01:40:00 15.8 C 94 % 14.84 C
22 04-09-2020 01:45:00 15.8 C 94 % 14.84 C
23 04-09-2020 01:50:00 15.8 C 94 % 14.84 C
24 04-09-2020 01:55:00 15.8 C 94 % 14.84 C
25 04-09-2020 02:00:00 15.8 C 93 % 14.67 C
Sensor: Nr:Datum:Temp:Feuchte:Taupunkt:
Aussen-T/F 26 04-09-2020 02:05:00 15.7 C 93 % 14.57 C
27 04-09-2020 02:10:00 15.7 C 93 % 14.57 C
28 04-09-2020 02:15:00 15.7 C 93 % 14.57 C
29 04-09-2020 02:20:00 15.7 C 93 % 14.57 C
30 04-09-2020 02:25:00 15.7 C 93 % 14.57 C
31 04-09-2020 02:30:00 15.8 C 93 % 14.67 C
32 04-09-2020 02:35:00 15.8 C 93 % 14.67 C
33 04-09-2020 02:40:00 15.9 C 93 % 14.77 C
34 04-09-2020 02:45:00 16 C 93 % 14.87 C
35 04-09-2020 02:50:00 16.1 C 92 % 14.8 C
36 04-09-2020 02:55:00 16.2 C 93 % 15.07 C
37 04-09-2020 03:00:00 16.3 C 93 % 15.17 C
38 04-09-2020 03:05:00 16.4 C 93 % 15.27 C
39 04-09-2020 03:10:00 16.4 C 92 % 15.1 C
40 04-09-2020 03:15:00 16.4 C 92 % 15.1 C
41 04-09-2020 03:20:00 16.4 C 92 % 15.1 C
42 04-09-2020 03:25:00 16.4 C 92 % 15.1 C
43 04-09-2020 03:30:00 16.4 C 91 % 14.93 C
44 04-09-2020 03:35:00 16.5 C 91 % 15.03 C
45 04-09-2020 03:40:00 16.6 C 91 % 15.13 C
46 04-09-2020 03:45:00 16.6 C 91 % 15.13 C
47 04-09-2020 03:50:00 16.6 C 91 % 15.13 C
48 04-09-2020 03:55:00 16.6 C 91 % 15.13 C
49 04-09-2020 04:00:00 16.6 C 91 % 15.13 C
50 04-09-2020 04:05:00 16.6 C 90 % 14.95 C
Sensor: Nr:Datum:Temp:Feuchte:Taupunkt:
Aussen-T/F 51 04-09-2020 04:10:00 16.6 C 90 % 14.95 C
52 04-09-2020 04:15:00 16.6 C 90 % 14.95 C
53 04-09-2020 04:20:00 16.7 C 90 % 15.05 C
54 04-09-2020 04:25:00 16.8 C 91 % 15.32 C
55 04-09-2020 04:30:00 16.8 C 90 % 15.15 C
56 04-09-2020 04:35:00 16.8 C 90 % 15.15 C
57 04-09-2020 04:40:00 16.8 C 90 % 15.15 C
58 04-09-2020 04:45:00 16.7 C 90 % 15.05 C
59 04-09-2020 04:50:00 16.7 C 90 % 15.05 C
60 04-09-2020 04:55:00 16.7 C 90 % 15.05 C
61 04-09-2020 05:00:00 16.7 C 90 % 15.05 C
62 04-09-2020 05:05:00 16.7 C 90 % 15.05 C
63 04-09-2020 05:10:00 16.7 C 90 % 15.05 C
64 04-09-2020 05:15:00 16.7 C 90 % 15.05 C
65 04-09-2020 05:20:00 16.7 C 90 % 15.05 C
66 04-09-2020 05:25:00 16.7 C 90 % 15.05 C
67 04-09-2020 05:30:00 16.7 C 90 % 15.05 C
68 04-09-2020 05:35:00 16.7 C 91 % 15.22 C
69 04-09-2020 05:40:00 16.7 C 91 % 15.22 C
70 04-09-2020 05:45:00 16.7 C 91 % 15.22 C
71 04-09-2020 05:50:00 16.7 C 91 % 15.22 C
72 04-09-2020 05:55:00 16.7 C 91 % 15.22 C
73 04-09-2020 06:00:00 16.6 C 91 % 15.13 C
74 04-09-2020 06:05:00 16.6 C 90 % 14.95 C
75 04-09-2020 06:10:00 16.6 C 90 % 14.95 C
Sensor: Nr:Datum:Temp:Feuchte:Taupunkt:
Aussen-T/F 76 04-09-2020 06:15:00 16.5 C 90 % 14.85 C
77 04-09-2020 06:20:00 16.5 C 90 % 14.85 C
78 04-09-2020 06:25:00 16.5 C 90 % 14.85 C
79 04-09-2020 06:30:00 16.6 C 90 % 14.95 C
80 04-09-2020 06:35:00 16.6 C 90 % 14.95 C
81 04-09-2020 06:40:00 16.6 C 89 % 14.78 C
82 04-09-2020 06:45:00 16.6 C 90 % 14.95 C
83 04-09-2020 06:50:00 16.6 C 90 % 14.95 C
84 04-09-2020 06:55:00 16.7 C 90 % 15.05 C
85 04-09-2020 07:00:00 16.7 C 89 % 14.88 C
86 04-09-2020 07:05:00 16.7 C 89 % 14.88 C
87 04-09-2020 07:10:00 16.7 C 89 % 14.88 C
88 04-09-2020 07:15:00 16.7 C 89 % 14.88 C
89 04-09-2020 07:20:00 16.8 C 89 % 14.98 C
90 04-09-2020 07:25:00 16.8 C 89 % 14.98 C
91 04-09-2020 07:30:00 16.8 C 89 % 14.98 C
92 04-09-2020 07:35:00 16.8 C 89 % 14.98 C
93 04-09-2020 07:40:00 16.8 C 88 % 14.8 C
94 04-09-2020 07:45:00 16.8 C 89 % 14.98 C
95 04-09-2020 07:50:00 16.9 C 89 % 15.08 C
96 04-09-2020 07:55:00 16.9 C 89 % 15.08 C
97 04-09-2020 08:00:00 17 C 90 % 15.35 C
98 04-09-2020 08:05:00 17 C 90 % 15.35 C
99 04-09-2020 08:10:00 17.1 C 89 % 15.27 C
100 04-09-2020 08:15:00 17.1 C 89 % 15.27 C
Sensor: Nr:Datum:Temp:Feuchte:Taupunkt:
Aussen-T/F 101 04-09-2020 08:20:00 17.1 C 89 % 15.27 C
102 04-09-2020 08:25:00 17.1 C 89 % 15.27 C
103 04-09-2020 08:30:00 17.2 C 89 % 15.37 C
104 04-09-2020 08:35:00 17.2 C 89 % 15.37 C
105 04-09-2020 08:40:00 17.2 C 88 % 15.2 C
106 04-09-2020 08:45:00 17.3 C 88 % 15.29 C
107 04-09-2020 08:50:00 17.4 C 89 % 15.57 C
108 04-09-2020 08:55:00 17.4 C 88 % 15.39 C
109 04-09-2020 09:00:00 17.6 C 88 % 15.59 C
110 04-09-2020 09:05:00 17.7 C 88 % 15.69 C
111 04-09-2020 09:10:00 17.9 C 85 % 15.34 C
112 04-09-2020 09:15:00 18.1 C 86 % 15.72 C
113 04-09-2020 09:20:00 18.3 C 86 % 15.92 C
114 04-09-2020 09:25:00 18.4 C 85 % 15.83 C
115 04-09-2020 09:30:00 18.6 C 85 % 16.03 C
116 04-09-2020 09:35:00 18.6 C 85 % 16.03 C
117 04-09-2020 09:40:00 18.7 C 85 % 16.13 C
118 04-09-2020 09:45:00 18.7 C 85 % 16.13 C
119 04-09-2020 09:50:00 18.8 C 84 % 16.04 C
120 04-09-2020 09:55:00 18.8 C 84 % 16.04 C
121 04-09-2020 10:00:00 18.9 C 84 % 16.14 C
122 04-09-2020 10:05:00 18.9 C 84 % 16.14 C
123 04-09-2020 10:10:00 18.9 C 82 % 15.76 C
124 04-09-2020 10:15:00 19.1 C 83 % 16.15 C
125 04-09-2020 10:20:00 19.1 C 83 % 16.15 C
Sensor: Nr:Datum:Temp:Feuchte:Taupunkt:
Aussen-T/F 126 04-09-2020 10:25:00 19.2 C 82 % 16.05 C
127 04-09-2020 10:30:00 19.3 C 83 % 16.34 C
128 04-09-2020 10:35:00 19.4 C 83 % 16.44 C
129 04-09-2020 10:40:00 19.4 C 82 % 16.25 C
130 04-09-2020 10:45:00 19.6 C 82 % 16.44 C
131 04-09-2020 10:50:00 19.6 C 82 % 16.44 C
132 04-09-2020 10:55:00 19.7 C 82 % 16.54 C
133 04-09-2020 11:00:00 19.7 C 80 % 16.15 C
134 04-09-2020 11:05:00 19.7 C 81 % 16.35 C
135 04-09-2020 11:10:00 19.8 C 80 % 16.25 C
136 04-09-2020 11:15:00 19.9 C 81 % 16.54 C
137 04-09-2020 11:20:00 20.1 C 80 % 16.54 C
138 04-09-2020 11:25:00 20.3 C 80 % 16.74 C
139 04-09-2020 11:30:00 20.4 C 78 % 16.44 C
140 04-09-2020 11:35:00 20.6 C 77 % 16.43 C
141 04-09-2020 11:40:00 20.7 C 78 % 16.73 C
142 04-09-2020 11:45:00 20.9 C 75 % 16.3 C
143 04-09-2020 11:50:00 21.1 C 73 % 16.07 C
144 04-09-2020 11:55:00 21.3 C 75 % 16.69 C
145 04-09-2020 12:00:00 21.5 C 73 % 16.46 C
146 04-09-2020 12:05:00 21.7 C 71 % 16.21 C
147 04-09-2020 12:10:00 21.9 C 72 % 16.62 C
148 04-09-2020 12:15:00 22.1 C 71 % 16.6 C
149 04-09-2020 12:20:00 22.3 C 71 % 16.79 C
150 04-09-2020 12:25:00 22.4 C 71 % 16.88 C
Sensor: Nr:Datum:Temp:Feuchte:Taupunkt:
Aussen-T/F 151 04-09-2020 12:30:00 22.6 C 69 % 16.62 C
152 04-09-2020 12:35:00 22.8 C 69 % 16.82 C
153 04-09-2020 12:40:00 22.9 C 71 % 17.36 C
154 04-09-2020 12:45:00 22.9 C 70 % 17.14 C
155 04-09-2020 12:50:00 23.1 C 70 % 17.33 C
156 04-09-2020 12:55:00 23.2 C 69 % 17.2 C
157 04-09-2020 13:00:00 23.3 C 70 % 17.52 C
158 04-09-2020 13:05:00 23.6 C 69 % 17.58 C
159 04-09-2020 13:10:00 23.8 C 67 % 17.3 C
160 04-09-2020 13:15:00 23.9 C 67 % 17.4 C
161 04-09-2020 13:20:00 24.2 C 66 % 17.45 C
162 04-09-2020 13:25:00 24.4 C 65 % 17.39 C
163 04-09-2020 13:30:00 24.7 C 64 % 17.43 C
164 04-09-2020 13:35:00 24.8 C 64 % 17.53 C
165 04-09-2020 13:40:00 25.1 C 62 % 17.31 C
166 04-09-2020 13:45:00 25.3 C 64 % 18 C
167 04-09-2020 13:50:00 25.4 C 63 % 17.84 C
168 04-09-2020 13:55:00 25.5 C 63 % 17.94 C
169 04-09-2020 14:00:00 25.6 C 61 % 17.52 C
170 04-09-2020 14:05:00 25.7 C 61 % 17.61 C
171 04-09-2020 14:10:00 25.6 C 62 % 17.78 C
172 04-09-2020 14:15:00 25.6 C 61 % 17.52 C
173 04-09-2020 14:20:00 25.5 C 61 % 17.43 C
174 04-09-2020 14:25:00 25.5 C 62 % 17.68 C
175 04-09-2020 14:30:00 25.6 C 62 % 17.78 C
Sensor: Nr:Datum:Temp:Feuchte:Taupunkt:
Aussen-T/F 176 04-09-2020 14:35:00 25.7 C 61 % 17.61 C
177 04-09-2020 14:40:00 25.7 C 60 % 17.35 C
178 04-09-2020 14:45:00 25.8 C 62 % 17.97 C
179 04-09-2020 14:50:00 25.9 C 64 % 18.57 C
180 04-09-2020 14:55:00 25.9 C 59 % 17.27 C
181 04-09-2020 15:00:00 25.7 C 61 % 17.61 C
182 04-09-2020 15:05:00 25.7 C 61 % 17.61 C
183 04-09-2020 15:10:00 25.6 C 61 % 17.52 C
184 04-09-2020 15:15:00 25.6 C 61 % 17.52 C
185 04-09-2020 15:20:00 25.6 C 61 % 17.52 C
186 04-09-2020 15:25:00 25.6 C 61 % 17.52 C
187 04-09-2020 15:30:00 25.7 C 61 % 17.61 C
188 04-09-2020 15:35:00 25.8 C 62 % 17.97 C
189 04-09-2020 15:40:00 25.8 C 61 % 17.71 C
190 04-09-2020 15:45:00 25.8 C 62 % 17.97 C
191 04-09-2020 15:50:00 25.8 C 61 % 17.71 C
192 04-09-2020 15:55:00 25.9 C 60 % 17.54 C
193 04-09-2020 16:00:00 25.9 C 60 % 17.54 C
194 04-09-2020 16:05:00 26 C 60 % 17.63 C
195 04-09-2020 16:10:00 26.1 C 59 % 17.46 C
196 04-09-2020 16:15:00 26.2 C 59 % 17.55 C
197 04-09-2020 16:20:00 26.3 C 60 % 17.91 C
198 04-09-2020 16:25:00 26.2 C 58 % 17.28 C
199 04-09-2020 16:30:00 26.2 C 59 % 17.55 C
200 04-09-2020 16:35:00 26.3 C 59 % 17.65 C
Sensor: Nr:Datum:Temp:Feuchte:Taupunkt:
Aussen-T/F 201 04-09-2020 16:40:00 26.4 C 58 % 17.47 C
202 04-09-2020 16:45:00 26.5 C 59 % 17.83 C
203 04-09-2020 16:50:00 26.9 C 60 % 18.48 C
204 04-09-2020 16:55:00 27.1 C 56 % 17.57 C
205 04-09-2020 17:00:00 27.3 C 57 % 18.03 C
206 04-09-2020 17:05:00 27.6 C 55 % 17.74 C
207 04-09-2020 17:10:00 28.1 C 55 % 18.21 C
208 04-09-2020 17:15:00 28.4 C 53 % 17.9 C
209 04-09-2020 17:20:00 28.8 C 52 % 17.96 C
210 04-09-2020 17:25:00 28.8 C 52 % 17.96 C
211 04-09-2020 17:30:00 28.7 C 54 % 18.47 C
212 04-09-2020 17:35:00 28.6 C 57 % 19.24 C
213 04-09-2020 17:40:00 28.3 C 60 % 19.79 C
214 04-09-2020 17:45:00 28.1 C 57 % 18.78 C
215 04-09-2020 17:50:00 27.8 C 61 % 19.59 C
216 04-09-2020 17:55:00 27.4 C 60 % 18.95 C
217 04-09-2020 18:00:00 27.1 C 62 % 19.19 C
218 04-09-2020 18:05:00 26.7 C 61 % 18.55 C
219 04-09-2020 18:10:00 26.2 C 63 % 18.6 C
220 04-09-2020 18:15:00 25.8 C 64 % 18.47 C
221 04-09-2020 18:20:00 25.4 C 66 % 18.58 C
222 04-09-2020 18:25:00 25.4 C 67 % 18.82 C
223 04-09-2020 18:30:00 25.4 C 68 % 19.06 C
224 04-09-2020 18:35:00 25.4 C 68 % 19.06 C
225 04-09-2020 18:40:00 25.2 C 68 % 18.87 C
Sensor: Nr:Datum:Temp:Feuchte:Taupunkt:
Aussen-T/F 226 04-09-2020 18:45:00 24.9 C 69 % 18.82 C
227 04-09-2020 18:50:00 24.6 C 70 % 18.76 C
228 04-09-2020 18:55:00 24.4 C 72 % 19.02 C
229 04-09-2020 19:00:00 24.2 C 72 % 18.83 C
230 04-09-2020 19:05:00 24 C 73 % 18.86 C
231 04-09-2020 19:10:00 23.9 C 73 % 18.76 C
232 04-09-2020 19:15:00 23.8 C 74 % 18.89 C
233 04-09-2020 19:20:00 23.6 C 75 % 18.91 C
234 04-09-2020 19:25:00 23.4 C 75 % 18.71 C
235 04-09-2020 19:30:00 23.3 C 75 % 18.62 C
236 04-09-2020 19:35:00 23.2 C 76 % 18.73 C
237 04-09-2020 19:40:00 23.1 C 76 % 18.64 C
238 04-09-2020 19:45:00 22.9 C 77 % 18.65 C
239 04-09-2020 19:50:00 22.8 C 78 % 18.76 C
240 04-09-2020 19:55:00 22.7 C 79 % 18.87 C
241 04-09-2020 20:00:00 22.5 C 79 % 18.67 C
242 04-09-2020 20:05:00 22.3 C 80 % 18.68 C
243 04-09-2020 20:10:00 22.2 C 80 % 18.58 C
244 04-09-2020 20:15:00 22 C 80 % 18.39 C
245 04-09-2020 20:20:00 21.7 C 81 % 18.3 C
246 04-09-2020 20:25:00 21.4 C 82 % 18.2 C
247 04-09-2020 20:30:00 21.2 C 82 % 18 C
248 04-09-2020 20:35:00 20.9 C 83 % 17.9 C
249 04-09-2020 20:40:00 20.7 C 84 % 17.9 C
250 04-09-2020 20:45:00 20.4 C 85 % 17.79 C
Sensor: Nr:Datum:Temp:Feuchte:Taupunkt:
Aussen-T/F 251 04-09-2020 20:50:00 20.3 C 87 % 18.06 C
252 04-09-2020 20:55:00 20.3 C 87 % 18.06 C
253 04-09-2020 21:00:00 20.2 C 87 % 17.97 C
254 04-09-2020 21:05:00 20.1 C 88 % 18.05 C
255 04-09-2020 21:10:00 20.1 C 88 % 18.05 C
256 04-09-2020 21:15:00 20.1 C 88 % 18.05 C
257 04-09-2020 21:20:00 20.1 C 87 % 17.87 C
258 04-09-2020 21:25:00 20.1 C 87 % 17.87 C
259 04-09-2020 21:30:00 20.1 C 87 % 17.87 C
260 04-09-2020 21:35:00 20.1 C 87 % 17.87 C
261 04-09-2020 21:40:00 20.1 C 87 % 17.87 C
262 04-09-2020 21:45:00 20 C 87 % 17.77 C
263 04-09-2020 21:50:00 20 C 87 % 17.77 C
264 04-09-2020 21:55:00 19.9 C 87 % 17.67 C
265 04-09-2020 22:00:00 19.9 C 87 % 17.67 C
266 04-09-2020 22:05:00 19.9 C 87 % 17.67 C
267 04-09-2020 22:10:00 19.8 C 87 % 17.57 C
268 04-09-2020 22:15:00 19.8 C 87 % 17.57 C
269 04-09-2020 22:20:00 19.8 C 87 % 17.57 C
270 04-09-2020 22:25:00 19.7 C 87 % 17.47 C
271 04-09-2020 22:30:00 19.6 C 87 % 17.38 C
272 04-09-2020 22:35:00 19.4 C 86 % 17 C
273 04-09-2020 22:40:00 19.2 C 87 % 16.98 C
274 04-09-2020 22:45:00 19.1 C 87 % 16.89 C
275 04-09-2020 22:50:00 19 C 88 % 16.97 C
Sensor: Nr:Datum:Temp:Feuchte:Taupunkt:
Aussen-T/F 276 04-09-2020 22:55:00 18.9 C 89 % 17.05 C
277 04-09-2020 23:00:00 18.9 C 89 % 17.05 C
278 04-09-2020 23:05:00 18.8 C 89 % 16.95 C
279 04-09-2020 23:10:00 18.8 C 90 % 17.12 C
280 04-09-2020 23:15:00 18.8 C 90 % 17.12 C
281 04-09-2020 23:20:00 18.8 C 90 % 17.12 C
282 04-09-2020 23:25:00 18.8 C 90 % 17.12 C
283 04-09-2020 23:30:00 18.7 C 90 % 17.03 C
284 04-09-2020 23:35:00 18.7 C 91 % 17.2 C
285 04-09-2020 23:40:00 18.7 C 91 % 17.2 C
286 04-09-2020 23:45:00 18.6 C 91 % 17.1 C
287 04-09-2020 23:50:00 18.6 C 91 % 17.1 C
288 04-09-2020 23:55:00 18.5 C 91 % 17 C
289 05-09-2020 00:00:00 18.4 C 90 % 16.73 C
290 05-09-2020 00:05:00 18.3 C 91 % 16.81 C
291 05-09-2020 00:10:00 18.2 C 90 % 16.53 C
292 05-09-2020 00:15:00 18.1 C 91 % 16.61 C
293 05-09-2020 00:20:00 17.9 C 91 % 16.41 C
294 05-09-2020 00:25:00 17.8 C 91 % 16.31 C
295 05-09-2020 00:30:00 17.7 C 91 % 16.21 C
296 05-09-2020 00:35:00 17.6 C 91 % 16.11 C
297 05-09-2020 00:40:00 17.6 C 92 % 16.28 C
298 05-09-2020 00:45:00 17.4 C 91 % 15.92 C
299 05-09-2020 00:50:00 17.3 C 91 % 15.82 C
300 05-09-2020 00:55:00 17.2 C 92 % 15.89 C
Sensor: Nr:Datum:Temp:Feuchte:Taupunkt:
Aussen-T/F 301 05-09-2020 01:00:00 17.2 C 92 % 15.89 C
302 05-09-2020 01:05:00 17.1 C 92 % 15.79 C
303 05-09-2020 01:10:00 16.9 C 92 % 15.59 C
304 05-09-2020 01:15:00 16.8 C 92 % 15.49 C
305 05-09-2020 01:20:00 16.8 C 92 % 15.49 C
306 05-09-2020 01:25:00 16.7 C 92 % 15.39 C
307 05-09-2020 01:30:00 16.6 C 92 % 15.3 C
308 05-09-2020 01:35:00 16.4 C 92 % 15.1 C
309 05-09-2020 01:40:00 16.3 C 93 % 15.17 C
310 05-09-2020 01:45:00 16.3 C 93 % 15.17 C
311 05-09-2020 01:50:00 16.2 C 93 % 15.07 C
312 05-09-2020 01:55:00 16.1 C 93 % 14.97 C
313 05-09-2020 02:00:00 16 C 93 % 14.87 C
314 05-09-2020 02:05:00 15.9 C 93 % 14.77 C
315 05-09-2020 02:10:00 15.9 C 93 % 14.77 C
316 05-09-2020 02:15:00 15.8 C 94 % 14.84 C
317 05-09-2020 02:20:00 15.8 C 94 % 14.84 C
318 05-09-2020 02:25:00 15.8 C 94 % 14.84 C
319 05-09-2020 02:30:00 15.8 C 94 % 14.84 C
320 05-09-2020 02:35:00 15.9 C 94 % 14.94 C
321 05-09-2020 02:40:00 15.9 C 94 % 14.94 C
322 05-09-2020 02:45:00 15.9 C 94 % 14.94 C
323 05-09-2020 02:50:00 15.9 C 94 % 14.94 C
324 05-09-2020 02:55:00 15.9 C 94 % 14.94 C
325 05-09-2020 03:00:00 15.9 C 95 % 15.1 C
Sensor: Nr:Datum:Temp:Feuchte:Taupunkt:
Aussen-T/F 326 05-09-2020 03:05:00 15.9 C 95 % 15.1 C
327 05-09-2020 03:10:00 15.9 C 95 % 15.1 C
328 05-09-2020 03:15:00 16 C 95 % 15.2 C
329 05-09-2020 03:20:00 16 C 95 % 15.2 C
330 05-09-2020 03:25:00 16 C 95 % 15.2 C
331 05-09-2020 03:30:00 16 C 95 % 15.2 C
332 05-09-2020 03:35:00 16.1 C 95 % 15.3 C
333 05-09-2020 03:40:00 16.1 C 95 % 15.3 C
334 05-09-2020 03:45:00 16.2 C 95 % 15.4 C
335 05-09-2020 03:50:00 16.2 C 95 % 15.4 C
336 05-09-2020 03:55:00 16.2 C 95 % 15.4 C
337 05-09-2020 04:00:00 16.3 C 95 % 15.5 C
338 05-09-2020 04:05:00 16.3 C 95 % 15.5 C
339 05-09-2020 04:10:00 16.3 C 96 % 15.66 C
340 05-09-2020 04:15:00 16.4 C 96 % 15.76 C
341 05-09-2020 04:20:00 16.5 C 96 % 15.86 C
342 05-09-2020 04:25:00 16.6 C 96 % 15.96 C
343 05-09-2020 04:30:00 16.6 C 96 % 15.96 C
344 05-09-2020 04:35:00 16.6 C 96 % 15.96 C
345 05-09-2020 04:40:00 16.6 C 96 % 15.96 C
346 05-09-2020 04:45:00 16.6 C 96 % 15.96 C
347 05-09-2020 04:50:00 16.6 C 96 % 15.96 C
348 05-09-2020 04:55:00 16.7 C 96 % 16.06 C
349 05-09-2020 05:00:00 16.7 C 96 % 16.06 C
350 05-09-2020 05:05:00 16.7 C 96 % 16.06 C
Sensor: Nr:Datum:Temp:Feuchte:Taupunkt:
Aussen-T/F 351 05-09-2020 05:10:00 16.7 C 96 % 16.06 C
352 05-09-2020 05:15:00 16.7 C 96 % 16.06 C
353 05-09-2020 05:20:00 16.7 C 96 % 16.06 C
354 05-09-2020 05:25:00 16.7 C 96 % 16.06 C
355 05-09-2020 05:30:00 16.7 C 96 % 16.06 C
356 05-09-2020 05:35:00 16.7 C 95 % 15.9 C
357 05-09-2020 05:40:00 16.7 C 95 % 15.9 C
358 05-09-2020 05:45:00 16.7 C 95 % 15.9 C
359 05-09-2020 05:50:00 16.7 C 95 % 15.9 C
360 05-09-2020 05:55:00 16.7 C 95 % 15.9 C
361 05-09-2020 06:00:00 16.7 C 95 % 15.9 C
362 05-09-2020 06:05:00 16.7 C 95 % 15.9 C
363 05-09-2020 06:10:00 16.7 C 95 % 15.9 C
364 05-09-2020 06:15:00 16.7 C 95 % 15.9 C
365 05-09-2020 06:20:00 16.6 C 95 % 15.8 C
366 05-09-2020 06:25:00 16.4 C 94 % 15.43 C
367 05-09-2020 06:30:00 16 C 91 % 14.53 C
368 05-09-2020 06:35:00 15.9 C 89 % 14.09 C
369 05-09-2020 06:40:00 15.8 C 88 % 13.82 C
370 05-09-2020 06:45:00 15.8 C 86 % 13.46 C
371 05-09-2020 06:50:00 15.9 C 86 % 13.56 C
372 05-09-2020 06:55:00 15.9 C 85 % 13.38 C
373 05-09-2020 07:00:00 15.9 C 85 % 13.38 C
374 05-09-2020 07:05:00 15.9 C 85 % 13.38 C
375 05-09-2020 07:10:00 15.9 C 84 % 13.2 C
Sensor: Nr:Datum:Temp:Feuchte:Taupunkt:
Aussen-T/F 376 05-09-2020 07:15:00 15.9 C 84 % 13.2 C
377 05-09-2020 07:20:00 15.9 C 85 % 13.38 C
378 05-09-2020 07:25:00 15.9 C 84 % 13.2 C
379 05-09-2020 07:30:00 15.8 C 85 % 13.28 C
380 05-09-2020 07:35:00 15.8 C 85 % 13.28 C
381 05-09-2020 07:40:00 15.8 C 85 % 13.28 C
382 05-09-2020 07:45:00 15.7 C 85 % 13.19 C
383 05-09-2020 07:50:00 15.7 C 85 % 13.19 C
384 05-09-2020 07:55:00 15.6 C 85 % 13.09 C
385 05-09-2020 08:00:00 15.6 C 85 % 13.09 C
386 05-09-2020 08:05:00 15.6 C 85 % 13.09 C
387 05-09-2020 08:10:00 15.6 C 85 % 13.09 C
388 05-09-2020 08:15:00 15.6 C 85 % 13.09 C
389 05-09-2020 08:20:00 15.5 C 85 % 12.99 C
390 05-09-2020 08:25:00 15.5 C 85 % 12.99 C
391 05-09-2020 08:30:00 15.5 C 86 % 13.17 C
392 05-09-2020 08:35:00 15.5 C 86 % 13.17 C
393 05-09-2020 08:40:00 15.4 C 86 % 13.07 C
394 05-09-2020 08:45:00 15.4 C 86 % 13.07 C
395 05-09-2020 08:50:00 15.4 C 86 % 13.07 C
396 05-09-2020 08:55:00 15.5 C 86 % 13.17 C
397 05-09-2020 09:00:00 15.6 C 86 % 13.27 C
398 05-09-2020 09:05:00 15.6 C 86 % 13.27 C
399 05-09-2020 09:10:00 15.7 C 85 % 13.19 C
400 05-09-2020 09:15:00 15.8 C 85 % 13.28 C
Sensor: Nr:Datum:Temp:Feuchte:Taupunkt:
Aussen-T/F 401 05-09-2020 09:20:00 15.9 C 84 % 13.2 C
402 05-09-2020 09:25:00 15.9 C 83 % 13.02 C
403 05-09-2020 09:30:00 15.9 C 84 % 13.2 C
404 05-09-2020 09:35:00 15.9 C 83 % 13.02 C
405 05-09-2020 09:40:00 15.9 C 83 % 13.02 C
406 05-09-2020 09:45:00 16 C 84 % 13.3 C
407 05-09-2020 09:50:00 16.1 C 82 % 13.03 C
408 05-09-2020 09:55:00 16.2 C 82 % 13.13 C
409 05-09-2020 10:00:00 16.2 C 82 % 13.13 C
410 05-09-2020 10:05:00 16.2 C 81 % 12.94 C
411 05-09-2020 10:10:00 16.2 C 81 % 12.94 C
412 05-09-2020 10:15:00 16.3 C 81 % 13.04 C
413 05-09-2020 10:20:00 16.3 C 81 % 13.04 C
414 05-09-2020 10:25:00 16.4 C 81 % 13.13 C
415 05-09-2020 10:30:00 16.6 C 80 % 13.14 C
416 05-09-2020 10:35:00 16.8 C 80 % 13.33 C
417 05-09-2020 10:40:00 17.1 C 81 % 13.82 C
418 05-09-2020 10:45:00 17.2 C 81 % 13.91 C
419 05-09-2020 10:50:00 17.2 C 80 % 13.72 C
420 05-09-2020 10:55:00 17.2 C 79 % 13.53 C
421 05-09-2020 11:00:00 17.2 C 80 % 13.72 C
422 05-09-2020 11:05:00 17.3 C 79 % 13.63 C
423 05-09-2020 11:10:00 17.4 C 78 % 13.53 C
424 05-09-2020 11:15:00 17.5 C 78 % 13.62 C
425 05-09-2020 11:20:00 17.6 C 76 % 13.32 C
Sensor: Nr:Datum:Temp:Feuchte:Taupunkt:
Aussen-T/F 426 05-09-2020 11:25:00 17.8 C 76 % 13.52 C
427 05-09-2020 11:30:00 17.9 C 77 % 13.81 C
428 05-09-2020 11:35:00 18.2 C 75 % 13.7 C
429 05-09-2020 11:40:00 18.2 C 74 % 13.49 C
430 05-09-2020 11:45:00 18.2 C 74 % 13.49 C
431 05-09-2020 11:50:00 18.1 C 74 % 13.4 C
432 05-09-2020 11:55:00 18.1 C 74 % 13.4 C
433 05-09-2020 12:00:00 18.1 C 75 % 13.6 C
434 05-09-2020 12:05:00 18.1 C 74 % 13.4 C
435 05-09-2020 12:10:00 18.2 C 74 % 13.49 C
436 05-09-2020 12:15:00 18.3 C 73 % 13.38 C
437 05-09-2020 12:20:00 18.3 C 73 % 13.38 C
438 05-09-2020 12:25:00 18.3 C 72 % 13.17 C
439 05-09-2020 12:30:00 18.4 C 73 % 13.48 C
440 05-09-2020 12:35:00 18.5 C 72 % 13.36 C
441 05-09-2020 12:40:00 18.6 C 70 % 13.02 C
442 05-09-2020 12:45:00 18.6 C 70 % 13.02 C
443 05-09-2020 12:50:00 18.5 C 71 % 13.15 C
444 05-09-2020 12:55:00 18.5 C 72 % 13.36 C
445 05-09-2020 13:00:00 18.6 C 71 % 13.24 C
446 05-09-2020 13:05:00 18.6 C 71 % 13.24 C
447 05-09-2020 13:10:00 18.6 C 71 % 13.24 C
448 05-09-2020 13:15:00 18.6 C 71 % 13.24 C
449 05-09-2020 13:20:00 18.6 C 71 % 13.24 C
450 05-09-2020 13:25:00 18.6 C 71 % 13.24 C
Sensor: Nr:Datum:Temp:Feuchte:Taupunkt:
Aussen-T/F 451 05-09-2020 13:30:00 18.7 C 72 % 13.55 C
452 05-09-2020 13:35:00 18.7 C 70 % 13.12 C
453 05-09-2020 13:40:00 18.7 C 71 % 13.34 C
454 05-09-2020 13:45:00 18.6 C 71 % 13.24 C
455 05-09-2020 13:50:00 18.7 C 71 % 13.34 C
456 05-09-2020 13:55:00 18.7 C 70 % 13.12 C
457 05-09-2020 14:00:00 18.8 C 68 % 12.77 C
458 05-09-2020 14:05:00 18.8 C 68 % 12.77 C
459 05-09-2020 14:10:00 18.8 C 69 % 13 C
460 05-09-2020 14:15:00 18.9 C 69 % 13.09 C
461 05-09-2020 14:20:00 19 C 69 % 13.19 C
462 05-09-2020 14:25:00 19.1 C 68 % 13.06 C
463 05-09-2020 14:30:00 19.2 C 68 % 13.15 C
464 05-09-2020 14:35:00 19.1 C 68 % 13.06 C
465 05-09-2020 14:40:00 18.9 C 69 % 13.09 C
466 05-09-2020 14:45:00 18.7 C 71 % 13.34 C
467 05-09-2020 14:50:00 18.4 C 72 % 13.26 C
468 05-09-2020 14:55:00 18.2 C 72 % 13.07 C
469 05-09-2020 15:00:00 18 C 73 % 13.09 C
470 05-09-2020 15:05:00 17.8 C 74 % 13.11 C
471 05-09-2020 15:10:00 17.7 C 75 % 13.22 C
472 05-09-2020 15:15:00 17.6 C 74 % 12.91 C
473 05-09-2020 15:20:00 17.6 C 74 % 12.91 C
474 05-09-2020 15:25:00 17.5 C 74 % 12.82 C
475 05-09-2020 15:30:00 17.4 C 74 % 12.72 C
Sensor: Nr:Datum:Temp:Feuchte:Taupunkt:
Aussen-T/F 476 05-09-2020 15:35:00 17.5 C 74 % 12.82 C
477 05-09-2020 15:40:00 17.7 C 73 % 12.8 C
478 05-09-2020 15:45:00 18 C 73 % 13.09 C
479 05-09-2020 15:50:00 18.2 C 70 % 12.64 C
480 05-09-2020 15:55:00 18.2 C 69 % 12.42 C
481 05-09-2020 16:00:00 18.2 C 70 % 12.64 C
482 05-09-2020 16:05:00 18.2 C 69 % 12.42 C
483 05-09-2020 16:10:00 18.2 C 68 % 12.2 C
484 05-09-2020 16:15:00 18.3 C 68 % 12.3 C
485 05-09-2020 16:20:00 18.5 C 68 % 12.49 C
486 05-09-2020 16:25:00 18.7 C 67 % 12.45 C
487 05-09-2020 16:30:00 18.8 C 66 % 12.32 C
488 05-09-2020 16:35:00 18.9 C 67 % 12.64 C
489 05-09-2020 16:40:00 19.1 C 65 % 12.37 C
490 05-09-2020 16:45:00 19.1 C 65 % 12.37 C
491 05-09-2020 16:50:00 19.1 C 64 % 12.14 C
492 05-09-2020 16:55:00 19.1 C 64 % 12.14 C
493 05-09-2020 17:00:00 19 C 63 % 11.8 C
494 05-09-2020 17:05:00 19 C 64 % 12.04 C
495 05-09-2020 17:10:00 19.2 C 63 % 11.99 C
496 05-09-2020 17:15:00 19.3 C 61 % 11.6 C
497 05-09-2020 17:20:00 19.4 C 62 % 11.94 C
498 05-09-2020 17:25:00 19.5 C 60 % 11.53 C
499 05-09-2020 17:30:00 19.6 C 59 % 11.37 C
500 05-09-2020 17:35:00 19.6 C 59 % 11.37 C
Sensor: Nr:Datum:Temp:Feuchte:Taupunkt:
Aussen-T/F 501 05-09-2020 17:40:00 19.6 C 58 % 11.12 C
502 05-09-2020 17:45:00 19.7 C 57 % 10.95 C
503 05-09-2020 17:50:00 19.7 C 57 % 10.95 C
504 05-09-2020 17:55:00 19.7 C 58 % 11.21 C
505 05-09-2020 18:00:00 19.7 C 56 % 10.68 C
506 05-09-2020 18:05:00 19.6 C 55 % 10.32 C
507 05-09-2020 18:10:00 19.5 C 57 % 10.76 C
508 05-09-2020 18:15:00 19.5 C 57 % 10.76 C
509 05-09-2020 18:20:00 19.8 C 54 % 10.23 C
510 05-09-2020 18:25:00 20.3 C 52 % 10.13 C
511 05-09-2020 18:30:00 20.7 C 52 % 10.5 C
512 05-09-2020 18:35:00 20.7 C 49 % 9.61 C
513 05-09-2020 18:40:00 20.8 C 47 % 9.08 C
514 05-09-2020 18:45:00 20.8 C 46 % 8.77 C
515 05-09-2020 18:50:00 20.7 C 50 % 9.91 C
516 05-09-2020 18:55:00 20.3 C 48 % 8.94 C
517 05-09-2020 19:00:00 19.9 C 50 % 9.18 C
518 05-09-2020 19:05:00 19.6 C 50 % 8.9 C
519 05-09-2020 19:10:00 19.5 C 57 % 10.76 C
520 05-09-2020 19:15:00 19.4 C 60 % 11.44 C
521 05-09-2020 19:20:00 19.1 C 57 % 10.39 C
522 05-09-2020 19:25:00 18.8 C 57 % 10.11 C
523 05-09-2020 19:30:00 18.6 C 58 % 10.18 C
524 05-09-2020 19:35:00 18.3 C 62 % 10.9 C
525 05-09-2020 19:40:00 18 C 63 % 10.86 C
Sensor: Nr:Datum:Temp:Feuchte:Taupunkt:
Aussen-T/F 526 05-09-2020 19:45:00 17.6 C 61 % 10 C
527 05-09-2020 19:50:00 17.3 C 59 % 9.22 C
528 05-09-2020 19:55:00 17.1 C 62 % 9.77 C
529 05-09-2020 20:00:00 16.8 C 65 % 10.19 C
530 05-09-2020 20:05:00 16.7 C 62 % 9.39 C
531 05-09-2020 20:10:00 16.7 C 62 % 9.39 C
532 05-09-2020 20:15:00 16.7 C 63 % 9.63 C
533 05-09-2020 20:20:00 16.7 C 63 % 9.63 C
534 05-09-2020 20:25:00 16.7 C 66 % 10.32 C
535 05-09-2020 20:30:00 16.6 C 65 % 10 C
536 05-09-2020 20:35:00 16.5 C 66 % 10.13 C
537 05-09-2020 20:40:00 16.3 C 67 % 10.17 C
538 05-09-2020 20:45:00 16.1 C 69 % 10.42 C
539 05-09-2020 20:50:00 15.7 C 70 % 10.25 C
540 05-09-2020 20:55:00 15.4 C 72 % 10.38 C
541 05-09-2020 21:00:00 15.1 C 73 % 10.3 C
542 05-09-2020 21:05:00 14.9 C 74 % 10.31 C
543 05-09-2020 21:10:00 14.7 C 75 % 10.32 C
544 05-09-2020 21:15:00 14.5 C 75 % 10.13 C
545 05-09-2020 21:20:00 14.4 C 76 % 10.23 C
546 05-09-2020 21:25:00 14.3 C 77 % 10.33 C
547 05-09-2020 21:30:00 14.2 C 76 % 10.03 C
548 05-09-2020 21:35:00 14.2 C 76 % 10.03 C
549 05-09-2020 21:40:00 14.2 C 77 % 10.23 C
550 05-09-2020 21:45:00 14.1 C 76 % 9.94 C
Sensor: Nr:Datum:Temp:Feuchte:Taupunkt:
Aussen-T/F 551 05-09-2020 21:50:00 13.9 C 77 % 9.94 C
552 05-09-2020 21:55:00 13.8 C 78 % 10.03 C
553 05-09-2020 22:00:00 13.8 C 78 % 10.03 C
554 05-09-2020 22:05:00 13.7 C 77 % 9.75 C
555 05-09-2020 22:10:00 13.7 C 78 % 9.94 C
556 05-09-2020 22:15:00 13.7 C 78 % 9.94 C
557 05-09-2020 22:20:00 13.7 C 78 % 9.94 C
558 05-09-2020 22:25:00 13.7 C 78 % 9.94 C
559 05-09-2020 22:30:00 13.6 C 78 % 9.84 C
560 05-09-2020 22:35:00 13.7 C 78 % 9.94 C
561 05-09-2020 22:40:00 13.8 C 78 % 10.03 C
562 05-09-2020 22:45:00 13.8 C 79 % 10.22 C
563 05-09-2020 22:50:00 13.8 C 79 % 10.22 C
564 05-09-2020 22:55:00 13.7 C 79 % 10.13 C
565 05-09-2020 23:00:00 13.6 C 79 % 10.03 C
566 05-09-2020 23:05:00 13.4 C 79 % 9.84 C
567 05-09-2020 23:10:00 13.3 C 80 % 9.93 C
568 05-09-2020 23:15:00 13.2 C 80 % 9.83 C
569 05-09-2020 23:20:00 13.1 C 81 % 9.92 C
570 05-09-2020 23:25:00 13.1 C 81 % 9.92 C
571 05-09-2020 23:30:00 13.1 C 82 % 10.1 C
572 05-09-2020 23:35:00 12.9 C 82 % 9.9 C
573 05-09-2020 23:40:00 12.9 C 82 % 9.9 C
574 05-09-2020 23:45:00 12.8 C 81 % 9.62 C
575 05-09-2020 23:50:00 12.8 C 82 % 9.81 C
Sensor: Nr:Datum:Temp:Feuchte:Taupunkt:
Aussen-T/F 576 05-09-2020 23:55:00 12.8 C 82 % 9.81 C

Legende:
   Min
   Max


Maximal/Minimal-Werte vom 04.09.2020 - 05.09.2020

Sensor Min Max Avg
Temp
(Aussen-T/F)
12.8 °C
05-09-2020  23:45:00
28.8 °C
04-09-2020  17:20:00
18.6 °C
Feuchte
(Aussen-T/F)
46 %
05-09-2020  18:45:00
96 %
05-09-2020  04:10:00
79.55 %
Taupunkt
(Aussen-T/F)
8.77 C
05-09-2020  18:45:00
19.79 C
04-09-2020  17:40:00
14.74 C

Die Daten stammen von einer Davis Vantage Pro 2 Wetter-Station und werden unter Linux mit der Software wview2wettercgi und aufbereitet. Alle Angaben erfolgen ohne Gewähr für ihre Vollständigkeit oder Richtigkeit.
Kontakt: Rainer Krienke krienke@uni-koblenz.de . Meine Webseiten an der Uni Koblenz oder privat.
Version: $Revision: 0.78 $